createdAt,value
2018-07-08T00:00:53.223Z,4.10
2018-07-08T00:03:22.292Z,4.43
2018-07-08T00:05:51.472Z,4.40
2018-07-08T00:08:20.548Z,4.63
2018-07-08T00:10:57.833Z,4.00
2018-07-08T00:13:27.020Z,4.00
2018-07-08T00:15:56.116Z,4.43
2018-07-08T00:18:25.794Z,4.40
2018-07-08T00:20:55.777Z,4.23
2018-07-08T00:23:25.479Z,5.70
2018-07-08T00:25:54.586Z,3.90
2018-07-08T00:28:23.713Z,4.20
2018-07-08T00:30:52.863Z,3.90
2018-07-08T00:33:22.065Z,3.73
2018-07-08T00:35:51.173Z,4.10
2018-07-08T00:38:20.255Z,3.77
2018-07-08T00:40:49.397Z,4.47
2018-07-08T00:43:18.766Z,4.13
2018-07-08T00:45:47.909Z,3.60
2018-07-08T00:48:17.022Z,3.80
2018-07-08T00:50:46.250Z,4.10
2018-07-08T00:53:15.439Z,3.90
2018-07-08T00:55:44.540Z,4.10
2018-07-08T00:58:13.749Z,3.90
2018-07-08T01:00:43.031Z,4.17
2018-07-08T01:03:12.160Z,3.80
2018-07-08T01:05:41.291Z,3.80
2018-07-08T01:08:10.349Z,4.00
2018-07-08T01:10:39.536Z,4.10
2018-07-08T01:13:08.651Z,4.27
2018-07-08T01:15:37.777Z,4.20
2018-07-08T01:18:06.969Z,4.03
2018-07-08T01:20:36.019Z,4.43
2018-07-08T01:23:05.194Z,4.30
2018-07-08T01:25:45.587Z,4.13
2018-07-08T01:28:14.733Z,4.40
2018-07-08T01:30:43.950Z,3.90
2018-07-08T01:33:13.148Z,4.20
2018-07-08T01:35:42.617Z,4.40
2018-07-08T01:38:11.765Z,4.03
2018-07-08T01:40:40.972Z,4.43
2018-07-08T01:43:10.157Z,4.40
2018-07-08T01:45:39.282Z,4.83
2018-07-08T01:48:08.401Z,4.60
2018-07-08T01:50:37.548Z,4.80
2018-07-08T01:53:06.626Z,4.23
2018-07-08T01:55:35.717Z,4.77
2018-07-08T01:58:05.149Z,4.20
2018-07-08T02:00:34.261Z,4.20
2018-07-08T02:03:03.403Z,4.77
2018-07-08T02:05:32.961Z,4.07
2018-07-08T02:08:02.057Z,4.20
2018-07-08T02:10:31.135Z,4.33
2018-07-08T02:13:00.303Z,4.60
2018-07-08T02:15:29.403Z,4.10
2018-07-08T02:17:58.518Z,4.10
2018-07-08T02:20:27.593Z,3.70
2018-07-08T02:22:57.197Z,4.00
2018-07-08T02:25:26.732Z,4.13
2018-07-08T02:27:55.820Z,3.90
2018-07-08T02:30:24.892Z,4.70
2018-07-08T02:32:54.174Z,4.37
2018-07-08T02:35:23.623Z,4.00
2018-07-08T02:37:52.735Z,4.37
2018-07-08T02:40:21.834Z,4.40
2018-07-08T02:42:50.986Z,4.03
2018-07-08T02:45:20.110Z,3.90
2018-07-08T02:47:49.642Z,4.80
2018-07-08T02:50:18.764Z,4.13
2018-07-08T02:52:47.925Z,4.10
2018-07-08T02:55:17.680Z,4.50
2018-07-08T02:57:46.741Z,4.53
2018-07-08T03:00:15.817Z,4.30
2018-07-08T03:02:44.885Z,4.00
2018-07-08T03:05:14.058Z,4.00
2018-07-08T03:07:43.148Z,3.90
2018-07-08T03:10:12.248Z,4.17
2018-07-08T03:12:41.341Z,4.00
2018-07-08T03:15:10.486Z,4.03
2018-07-08T03:17:39.637Z,4.23
2018-07-08T03:20:08.753Z,4.13
2018-07-08T03:22:37.993Z,4.50
2018-07-08T03:25:07.137Z,5.50
2018-07-08T03:27:36.254Z,3.83
2018-07-08T03:30:05.349Z,4.47
2018-07-08T03:32:34.480Z,3.97
2018-07-08T03:35:03.586Z,3.90
2018-07-08T03:37:32.726Z,4.00
2018-07-08T03:40:01.836Z,4.23
2018-07-08T03:42:30.941Z,4.33
2018-07-08T03:44:59.996Z,4.40
2018-07-08T03:47:29.084Z,3.80
2018-07-08T03:49:58.193Z,4.43
2018-07-08T03:52:27.294Z,4.20
2018-07-08T03:54:56.383Z,3.60
2018-07-08T03:57:25.539Z,3.83
2018-07-08T03:59:54.659Z,3.80
2018-07-08T04:02:23.756Z,3.83
2018-07-08T04:04:52.812Z,3.80
2018-07-08T04:07:21.949Z,3.90
2018-07-08T04:09:51.038Z,4.20
2018-07-08T04:12:20.137Z,4.17
2018-07-08T04:14:49.183Z,4.43
2018-07-08T04:17:18.291Z,4.07
2018-07-08T04:19:47.374Z,4.50
2018-07-08T04:22:16.463Z,4.10
2018-07-08T04:24:45.606Z,3.70
2018-07-08T04:27:14.773Z,4.20
2018-07-08T04:29:43.881Z,4.07
2018-07-08T04:32:13.113Z,4.47
2018-07-08T04:34:42.220Z,4.10
2018-07-08T04:37:11.328Z,3.80
2018-07-08T04:39:40.804Z,4.37
2018-07-08T04:42:09.974Z,4.10
2018-07-08T04:44:39.090Z,3.50
2018-07-08T04:47:08.305Z,4.00
2018-07-08T04:49:37.548Z,3.90
2018-07-08T04:52:06.598Z,4.43
2018-07-08T04:54:35.722Z,3.90
2018-07-08T04:57:05.183Z,4.10
2018-07-08T04:59:34.376Z,4.40
2018-07-08T05:02:03.459Z,4.50
2018-07-08T05:04:32.671Z,4.57
2018-07-08T05:07:01.730Z,4.07
2018-07-08T05:09:30.861Z,4.33
2018-07-08T05:11:59.962Z,4.00
2018-07-08T05:14:29.154Z,4.30
2018-07-08T05:16:58.256Z,4.00
2018-07-08T05:19:27.490Z,4.10
2018-07-08T05:21:56.549Z,4.60
2018-07-08T05:24:25.638Z,4.50
2018-07-08T05:26:55.191Z,4.17
2018-07-08T05:29:24.367Z,4.73
2018-07-08T05:31:53.437Z,4.30
2018-07-08T05:34:22.632Z,4.20
2018-07-08T05:36:51.700Z,4.93
2018-07-08T05:39:20.824Z,4.47
2018-07-08T05:41:50.049Z,4.40
2018-07-08T05:44:19.264Z,4.67
2018-07-08T05:46:48.424Z,4.23
2018-07-08T05:49:17.820Z,4.47
2018-07-08T05:51:47.084Z,4.40
2018-07-08T05:54:16.177Z,4.60
2018-07-08T05:56:45.757Z,4.40
2018-07-08T05:59:14.847Z,4.20
2018-07-08T06:01:44.201Z,4.30
2018-07-08T06:04:13.297Z,3.90
2018-07-08T06:06:42.477Z,4.00
2018-07-08T06:09:11.589Z,3.53
2018-07-08T06:11:40.685Z,3.77
2018-07-08T06:14:09.820Z,3.93
2018-07-08T06:16:38.956Z,4.00
2018-07-08T06:19:08.049Z,3.90
2018-07-08T06:21:37.384Z,3.80
2018-07-08T06:24:06.439Z,3.43
2018-07-08T06:26:35.561Z,3.80
2018-07-08T06:29:04.810Z,3.60
2018-07-08T06:31:33.905Z,3.87
2018-07-08T06:34:03.260Z,3.87
2018-07-08T06:36:32.378Z,3.83
2018-07-08T06:39:01.521Z,4.80
2018-07-08T06:41:30.554Z,3.60
2018-07-08T06:43:59.693Z,3.80
2018-07-08T06:46:28.850Z,3.67
2018-07-08T06:48:57.987Z,3.33
2018-07-08T06:51:27.142Z,3.10
2018-07-08T06:53:56.283Z,2.60
2018-07-08T06:56:26.049Z,2.90
2018-07-08T06:58:55.156Z,2.80
2018-07-08T07:01:24.321Z,3.20
2018-07-08T07:03:53.456Z,2.80
2018-07-08T07:06:22.662Z,3.00
2018-07-08T07:08:51.777Z,3.00
2018-07-08T07:11:20.926Z,2.87
2018-07-08T07:13:50.129Z,2.87
2018-07-08T07:16:19.405Z,3.83
2018-07-08T07:18:48.515Z,3.57
2018-07-08T07:21:17.628Z,3.73
2018-07-08T07:23:47.391Z,3.10
2018-07-08T07:26:16.499Z,2.80
2018-07-08T07:28:45.670Z,3.00
2018-07-08T07:31:14.731Z,3.10
2018-07-08T07:33:43.887Z,3.60
2018-07-08T07:36:13.007Z,2.63
2018-07-08T07:38:42.098Z,2.70
2018-07-08T07:41:11.551Z,2.90
2018-07-08T07:43:41.216Z,2.70
2018-07-08T07:46:10.413Z,2.93
2018-07-08T07:48:39.514Z,2.73
2018-07-08T07:51:08.651Z,2.57
2018-07-08T07:53:37.880Z,2.83
2018-07-08T07:56:07.382Z,3.10
2018-07-08T07:58:36.494Z,2.60
2018-07-08T08:01:05.991Z,2.90
2018-07-08T08:03:35.058Z,3.00
2018-07-08T08:06:04.171Z,2.80
2018-07-08T08:08:33.279Z,2.87
2018-07-08T08:11:02.392Z,3.50
2018-07-08T08:13:31.505Z,2.90
2018-07-08T08:16:00.554Z,2.80
2018-07-08T08:18:29.663Z,3.17
2018-07-08T08:20:58.875Z,3.30
2018-07-08T08:23:28.041Z,3.00
2018-07-08T08:25:57.233Z,2.80
2018-07-08T08:28:26.364Z,2.97
2018-07-08T08:30:55.501Z,2.87
2018-07-08T08:33:25.039Z,3.03
2018-07-08T08:35:54.180Z,2.80
2018-07-08T08:38:23.264Z,2.90
2018-07-08T08:40:53.112Z,3.00
2018-07-08T08:43:22.363Z,3.00
2018-07-08T08:45:51.554Z,2.87
2018-07-08T08:48:20.690Z,2.47
2018-07-08T08:50:50.010Z,2.27
2018-07-08T08:53:19.102Z,2.53
2018-07-08T08:55:48.188Z,2.73
2018-07-08T08:58:17.367Z,2.50
2018-07-08T09:00:46.614Z,2.33
2018-07-08T09:03:15.810Z,3.00
2018-07-08T09:05:44.964Z,2.07
2018-07-08T09:08:14.061Z,2.20
2018-07-08T09:10:43.150Z,2.50
2018-07-08T09:13:12.363Z,2.60
2018-07-08T09:15:41.906Z,2.57
2018-07-08T09:18:11.134Z,2.47
2018-07-08T09:20:40.188Z,2.77
2018-07-08T09:23:09.356Z,3.10
2018-07-08T09:25:40.133Z,2.40
2018-07-08T09:28:09.329Z,2.60
2018-07-08T09:30:38.802Z,2.90
2018-07-08T09:33:07.966Z,2.40
2018-07-08T09:35:37.086Z,2.50
2018-07-08T09:38:06.922Z,2.40
2018-07-08T09:40:36.105Z,2.80
2018-07-08T09:43:05.748Z,3.37
2018-07-08T09:45:34.952Z,2.57
2018-07-08T09:48:04.147Z,2.30
2018-07-08T09:50:33.320Z,2.73
2018-07-08T09:53:03.368Z,2.90
2018-07-08T09:55:32.522Z,3.47
2018-07-08T09:58:01.639Z,2.80
2018-07-08T10:00:30.839Z,3.10
2018-07-08T10:02:59.947Z,3.20
2018-07-08T10:05:30.366Z,2.67
2018-07-08T10:07:59.425Z,3.07
2018-07-08T10:10:28.522Z,3.07
2018-07-08T10:12:57.678Z,2.90
2018-07-08T10:15:26.847Z,2.70
2018-07-08T10:17:56.010Z,2.43
2018-07-08T10:20:25.166Z,2.90
2018-07-08T10:22:54.346Z,2.70
2018-07-08T10:25:23.535Z,3.10
2018-07-08T10:28:24.398Z,2.70
2018-07-08T10:30:54.059Z,2.27
2018-07-08T10:33:23.173Z,2.60
2018-07-08T10:36:02.232Z,2.50
2018-07-08T10:38:31.937Z,2.50
2018-07-08T10:41:01.544Z,2.80
2018-07-08T10:43:30.792Z,2.53
2018-07-08T10:45:59.950Z,2.60
2018-07-08T10:48:29.243Z,2.63
2018-07-08T10:51:05.076Z,2.10
2018-07-08T10:53:34.382Z,2.57
2018-07-08T10:56:03.471Z,2.40
2018-07-08T10:58:32.662Z,2.00
2018-07-08T11:01:02.582Z,2.20
2018-07-08T11:03:31.793Z,2.43
2018-07-08T11:06:00.894Z,1.90
2018-07-08T11:08:30.090Z,2.00
2018-07-08T11:10:59.378Z,1.97
2018-07-08T11:13:28.662Z,4.30
2018-07-08T11:15:58.812Z,2.20
2018-07-08T11:18:28.174Z,2.33
2018-07-08T11:20:57.414Z,2.90
2018-07-08T11:23:26.514Z,1.93
2018-07-08T11:25:55.581Z,1.50
2018-07-08T11:28:24.705Z,1.80
2018-07-08T11:30:53.908Z,1.90
2018-07-08T11:33:23.583Z,1.43
2018-07-08T11:35:52.629Z,2.10
2018-07-08T11:38:21.789Z,1.87
2018-07-08T11:40:50.896Z,1.70
2018-07-08T11:43:20.009Z,1.60
2018-07-08T11:45:49.496Z,1.73
2018-07-08T11:48:18.682Z,1.50
2018-07-08T11:50:47.869Z,1.47
2018-07-08T11:53:16.961Z,1.60
2018-07-08T11:55:46.111Z,1.50
2018-07-08T11:58:15.256Z,1.40
2018-07-08T12:00:44.450Z,1.80
2018-07-08T12:03:14.960Z,1.60
2018-07-08T12:05:44.073Z,1.70
2018-07-08T12:08:13.229Z,1.80
2018-07-08T12:10:43.393Z,1.83
2018-07-08T12:13:12.479Z,1.30
2018-07-08T12:15:42.187Z,1.57
2018-07-08T12:18:11.989Z,1.60
2018-07-08T12:20:41.206Z,1.47
2018-07-08T12:23:10.447Z,1.40
2018-07-08T12:25:39.594Z,1.40
2018-07-08T12:28:08.792Z,1.50
2018-07-08T12:30:38.192Z,1.50
2018-07-08T12:33:07.489Z,1.30
2018-07-08T12:35:36.638Z,1.33
2018-07-08T12:38:05.799Z,1.33
2018-07-08T12:40:34.958Z,1.57
2018-07-08T12:43:04.165Z,1.73
2018-07-08T12:45:33.334Z,1.97
2018-07-08T12:48:02.501Z,1.37
2018-07-08T12:50:31.569Z,1.40
2018-07-08T12:53:00.760Z,3.20
2018-07-08T12:55:29.932Z,2.03
2018-07-08T12:57:59.182Z,1.60
2018-07-08T13:00:30.308Z,1.50
2018-07-08T13:02:59.835Z,1.20
2018-07-08T13:05:29.006Z,1.40
2018-07-08T13:07:58.233Z,1.40
2018-07-08T13:10:27.408Z,1.97
2018-07-08T13:12:56.574Z,1.40
2018-07-08T13:15:25.730Z,1.40
2018-07-08T13:17:54.834Z,1.50
2018-07-08T13:20:24.030Z,1.50
2018-07-08T13:22:53.268Z,1.50
2018-07-08T13:25:22.414Z,1.60
2018-07-08T13:27:51.519Z,1.77
2018-07-08T13:30:20.610Z,1.37
2018-07-08T13:32:49.809Z,1.50
2018-07-08T13:35:18.931Z,1.77
2018-07-08T13:37:48.426Z,1.10
2018-07-08T13:40:17.643Z,1.20
2018-07-08T13:42:46.750Z,1.30
2018-07-08T13:45:15.822Z,2.87
2018-07-08T13:47:44.980Z,1.30
2018-07-08T13:50:14.176Z,3.20
2018-07-08T13:52:43.245Z,2.30
2018-07-08T13:55:12.442Z,1.17
2018-07-08T13:57:41.526Z,1.30
2018-07-08T14:00:11.477Z,1.30
2018-07-08T14:02:40.577Z,1.27
2018-07-08T14:05:09.715Z,1.73
2018-07-08T14:07:38.870Z,1.40
2018-07-08T14:10:08.093Z,1.33
2018-07-08T14:12:37.245Z,1.30
2018-07-08T14:15:06.405Z,1.50
2018-07-08T14:17:35.542Z,1.53
2018-07-08T14:20:05.186Z,2.33
2018-07-08T14:22:34.325Z,1.90
2018-07-08T14:25:03.527Z,1.30
2018-07-08T14:27:32.802Z,1.20
2018-07-08T14:30:01.946Z,1.50
2018-07-08T14:32:31.099Z,1.20
2018-07-08T14:35:00.306Z,1.30
2018-07-08T14:37:29.491Z,1.10
2018-07-08T14:39:58.849Z,1.40
2018-07-08T14:42:28.057Z,1.20
2018-07-08T14:44:57.178Z,1.63
2018-07-08T14:47:26.459Z,1.30
2018-07-08T14:49:55.695Z,1.20
2018-07-08T14:52:24.855Z,1.20
2018-07-08T14:54:54.073Z,1.50
2018-07-08T14:57:24.099Z,1.20
2018-07-08T14:59:53.202Z,1.43
2018-07-08T15:02:22.347Z,1.37
2018-07-08T15:04:51.432Z,0.97
2018-07-08T15:07:20.631Z,1.20
2018-07-08T15:09:49.871Z,1.40
2018-07-08T15:12:18.932Z,1.00
2018-07-08T15:14:47.988Z,1.20
2018-07-08T15:17:17.259Z,1.10
2018-07-08T15:19:46.372Z,1.50
2018-07-08T15:22:15.481Z,1.90
2018-07-08T15:24:44.667Z,1.93
2018-07-08T15:27:14.155Z,1.70
2018-07-08T15:29:43.357Z,1.53
2018-07-08T15:32:12.507Z,1.10
2018-07-08T15:34:42.949Z,1.50
2018-07-08T15:37:12.136Z,1.50
2018-07-08T15:39:41.340Z,1.30
2018-07-08T15:42:10.732Z,1.23
2018-07-08T15:44:39.837Z,1.77
2018-07-08T15:47:09.011Z,1.77
2018-07-08T15:49:38.148Z,1.80
2018-07-08T15:52:07.247Z,2.00
2018-07-08T15:54:36.509Z,1.60
2018-07-08T15:57:05.679Z,1.40
2018-07-08T15:59:34.791Z,1.50
2018-07-08T16:02:03.846Z,1.70
2018-07-08T16:04:34.016Z,1.60
2018-07-08T16:07:03.149Z,2.00
2018-07-08T16:09:32.348Z,1.40
2018-07-08T16:12:02.983Z,1.60
2018-07-08T16:14:32.301Z,1.60
2018-07-08T16:17:01.459Z,1.80
2018-07-08T16:19:30.599Z,1.30
2018-07-08T16:22:00.698Z,2.10
2018-07-08T16:24:30.276Z,1.70
2018-07-08T16:26:59.360Z,1.77
2018-07-08T16:29:28.533Z,1.20
2018-07-08T16:31:57.770Z,1.33
2018-07-08T16:34:27.092Z,1.70
2018-07-08T16:36:56.294Z,1.53
2018-07-08T16:39:25.510Z,1.50
2018-07-08T16:41:54.734Z,1.80
2018-07-08T16:44:23.899Z,1.43
2018-07-08T16:46:53.070Z,1.97
2018-07-08T16:49:22.287Z,1.50
2018-07-08T16:51:51.544Z,1.40
2018-07-08T16:54:20.655Z,1.40
2018-07-08T16:56:50.472Z,1.37
2018-07-08T16:59:19.739Z,1.60
2018-07-08T17:01:50.006Z,1.60
2018-07-08T17:04:19.415Z,1.57
2018-07-08T17:06:48.514Z,1.70
2018-07-08T17:09:18.512Z,1.20
2018-07-08T17:11:47.709Z,1.60
2018-07-08T17:14:17.675Z,1.60
2018-07-08T17:16:47.234Z,2.13
2018-07-08T17:19:16.291Z,1.67
2018-07-08T17:21:45.455Z,1.70
2018-07-08T17:24:14.695Z,1.50
2018-07-08T17:26:43.843Z,2.90
2018-07-08T17:29:13.069Z,1.80
2018-07-08T17:31:42.224Z,1.50
2018-07-08T17:34:11.506Z,1.60
2018-07-08T17:36:41.049Z,1.83
2018-07-08T17:39:10.246Z,1.60
2018-07-08T17:41:39.453Z,1.60
2018-07-08T17:44:09.342Z,1.83
2018-07-08T17:46:38.673Z,1.50
2018-07-08T17:49:07.870Z,1.70
2018-07-08T17:51:38.173Z,2.23
2018-07-08T17:54:07.316Z,2.20
2018-07-08T17:56:37.258Z,2.00
2018-07-08T17:59:07.397Z,1.73
2018-07-08T18:01:36.499Z,1.50
2018-07-08T18:04:05.862Z,2.57
2018-07-08T18:06:35.670Z,2.00
2018-07-08T18:09:05.853Z,2.00
2018-07-08T18:11:35.721Z,1.70
2018-07-08T18:14:05.359Z,2.37
2018-07-08T18:16:34.521Z,1.97
2018-07-08T18:19:03.809Z,2.50
2018-07-08T18:21:33.165Z,2.20
2018-07-08T18:24:02.337Z,2.07
2018-07-08T18:26:32.557Z,1.67
2018-07-08T18:29:03.377Z,2.50
2018-07-08T18:31:34.386Z,2.60
2018-07-08T18:34:03.753Z,1.60
2018-07-08T18:36:32.971Z,2.10
2018-07-08T18:39:02.181Z,2.33
2018-07-08T18:41:31.613Z,4.57
2018-07-08T18:44:00.987Z,2.10
2018-07-08T18:46:30.439Z,1.73
2018-07-08T18:48:59.635Z,2.10
2018-07-08T18:51:28.810Z,1.90
2018-07-08T18:53:58.223Z,2.30
2018-07-08T18:56:27.629Z,2.03
2018-07-08T18:58:57.074Z,2.50
2018-07-08T19:01:26.225Z,2.20
2018-07-08T19:03:55.357Z,3.00
2018-07-08T19:06:25.487Z,2.23
2018-07-08T19:08:54.756Z,2.83
2018-07-08T19:11:24.646Z,4.07
2018-07-08T19:13:53.745Z,1.63
2018-07-08T19:16:22.947Z,2.60
2018-07-08T19:18:52.093Z,2.50
2018-07-08T19:21:21.316Z,3.60
2018-07-08T19:23:50.471Z,3.07
2018-07-08T19:26:19.645Z,6.17
2018-07-08T19:28:48.768Z,3.97
2018-07-08T19:31:18.547Z,3.17
2018-07-08T19:33:47.661Z,2.00
2018-07-08T19:36:16.838Z,1.50
2018-07-08T19:38:46.069Z,1.50
2018-07-08T19:41:15.257Z,1.73
2018-07-08T19:43:44.509Z,1.47
2018-07-08T19:46:13.649Z,1.57
2018-07-08T19:48:43.314Z,2.70
2018-07-08T19:51:12.822Z,2.23
2018-07-08T19:53:42.026Z,2.73
2018-07-08T19:56:12.143Z,1.97
2018-07-08T19:58:41.414Z,1.77
2018-07-08T20:01:11.523Z,1.63
2018-07-08T20:03:41.121Z,1.63
2018-07-08T20:06:10.233Z,1.80
2018-07-08T20:08:39.408Z,1.73
2018-07-08T20:11:08.861Z,1.73
2018-07-08T20:13:38.167Z,1.50
2018-07-08T20:16:07.282Z,1.90
2018-07-08T20:18:36.458Z,1.97
2018-07-08T20:21:05.783Z,2.00
2018-07-08T20:23:35.450Z,1.97
2018-07-08T20:26:04.767Z,1.80
2018-07-08T20:28:34.252Z,2.10
2018-07-08T20:31:03.401Z,1.90
2018-07-08T20:33:33.550Z,2.27
2018-07-08T20:36:03.706Z,2.10
2018-07-08T20:38:32.910Z,1.90
2018-07-08T20:41:02.266Z,2.10
2018-07-08T20:43:31.439Z,2.30
2018-07-08T20:46:00.650Z,2.53
2018-07-08T20:48:29.802Z,1.90
2018-07-08T20:50:58.952Z,2.17
2018-07-08T20:53:28.901Z,2.10
2018-07-08T20:55:58.260Z,1.97
2018-07-08T20:58:28.368Z,2.30
2018-07-08T21:00:57.490Z,2.10
2018-07-08T21:03:27.063Z,2.40
2018-07-08T21:05:56.322Z,2.30
2018-07-08T21:08:25.546Z,2.10
2018-07-08T21:10:54.740Z,2.30
2018-07-08T21:13:23.771Z,2.10
2018-07-08T21:15:52.859Z,2.27
2018-07-08T21:18:22.154Z,2.30
2018-07-08T21:20:51.267Z,2.10
2018-07-08T21:23:20.362Z,2.00
2018-07-08T21:25:49.506Z,2.40
2018-07-08T21:28:18.686Z,2.40
2018-07-08T21:30:47.890Z,1.93
2018-07-08T21:33:17.051Z,2.60
2018-07-08T21:35:46.202Z,1.93
2018-07-08T21:38:15.310Z,1.87
2018-07-08T21:40:44.442Z,2.37
2018-07-08T21:43:13.633Z,2.13
2018-07-08T21:45:42.747Z,2.37
2018-07-08T21:48:11.869Z,2.87
2018-07-08T21:50:41.149Z,2.50
2018-07-08T21:53:10.226Z,5.17
2018-07-08T21:55:39.358Z,16.77
2018-07-08T21:58:08.519Z,11.80
2018-07-08T22:00:45.442Z,7.70
2018-07-08T22:03:14.699Z,16.50
2018-07-08T22:05:43.888Z,9.60
2018-07-08T22:08:13.048Z,2.20
2018-07-08T22:10:42.282Z,2.00
2018-07-08T22:13:11.582Z,2.10
2018-07-08T22:15:40.841Z,2.00
2018-07-08T22:18:10.063Z,1.87
2018-07-08T22:20:39.190Z,1.70
2018-07-08T22:23:08.407Z,1.93
2018-07-08T22:25:37.585Z,2.10
2018-07-08T22:28:07.876Z,2.10
2018-07-08T22:30:37.065Z,1.70
2018-07-08T22:33:06.278Z,1.80
2018-07-08T22:35:35.383Z,2.00
2018-07-08T22:38:04.702Z,1.73
2018-07-08T22:40:34.037Z,1.90
2018-07-08T22:43:03.420Z,1.90
2018-07-08T22:45:32.933Z,1.97
2018-07-08T22:48:02.794Z,1.90
2018-07-08T22:50:32.299Z,1.80
2018-07-08T22:53:01.462Z,2.30
2018-07-08T22:55:30.560Z,2.43
2018-07-08T22:57:59.762Z,1.70
2018-07-08T23:00:40.199Z,2.03
2018-07-08T23:03:20.612Z,2.27
2018-07-08T23:05:49.742Z,2.03
2018-07-08T23:08:18.893Z,2.00
2018-07-08T23:10:48.036Z,2.13
2018-07-08T23:13:17.218Z,1.80
2018-07-08T23:15:46.437Z,1.97
2018-07-08T23:18:15.532Z,1.67
2018-07-08T23:20:44.636Z,2.13
2018-07-08T23:23:13.859Z,2.03
2018-07-08T23:25:43.021Z,1.80
2018-07-08T23:28:12.126Z,1.97
2018-07-08T23:30:41.291Z,1.87
2018-07-08T23:33:10.478Z,2.20
2018-07-08T23:35:39.585Z,2.33
2018-07-08T23:38:08.737Z,1.87
2018-07-08T23:40:38.773Z,1.90
2018-07-08T23:43:08.276Z,1.93
2018-07-08T23:45:37.457Z,2.30
2018-07-08T23:48:06.548Z,2.47
2018-07-08T23:50:35.608Z,1.80
2018-07-08T23:53:04.801Z,2.10
2018-07-08T23:55:34.175Z,1.90
2018-07-08T23:58:03.369Z,2.10
